VOBG/BLR METAR and TAF weather

Enter ICAO airport designator
Station Type Date Time Source
VOBG METAR 2020/11/28 18:00 UTC NOAA

VOBG 281800Z 09006KT 6000 SCT012 SCT080 21/20 Q1018 NOSIG


Station Type Date Time Source
VOBG Decoded METAR 2020/11/28 18:00 UTC NOAA

Bangalore / Hindustan, India (VOBG) 12-57N 077-40E
Nov 28, 2020 - 01:00 PM EST / 2020.11.28 1800 UTC
Wind: from the E (090 degrees) at 7 MPH (6 KT):0
Visibility: 3 mile(s):0
Sky conditions: partly cloudy
Temperature: 69 F (21 C)
Dew Point: 68 F (20 C)
Relative Humidity: 94%
Pressure (altimeter): 30.06 in. Hg (1018 hPa)
ob: VOBG 281800Z 09006KT 6000 SCT012 SCT080 21/20 Q1018 NOSIG
cycle: 18

Station Type Date Time Source
VOBG TAF 2020/11/22 00:00 UTC NOAA

TAF VOBG 222300Z 2300/2309 VRB02KT 4000 BR SCT010
TEMPO 2300/2303 1500 BR SCT008 SCT012
BECMG 2304/2305 09010KT 6000 FEW015

Example: see airport list